sensor_id;sensor_type;location;lat;lon;timestamp;temperature;humidity
41882;DHT22;27562;47.524;12.404;2023-12-20T00:01:48;-2.00;99.90
41882;DHT22;27562;47.524;12.404;2023-12-20T00:04:14;-2.00;99.90
41882;DHT22;27562;47.524;12.404;2023-12-20T00:06:40;-2.00;99.90
41882;DHT22;27562;47.524;12.404;2023-12-20T00:09:06;-2.00;99.90
41882;DHT22;27562;47.524;12.404;2023-12-20T00:11:31;-2.10;99.90
41882;DHT22;27562;47.524;12.404;2023-12-20T00:13:57;-2.10;99.90
41882;DHT22;27562;47.524;12.404;2023-12-20T00:16:23;-2.10;99.90
41882;DHT22;27562;47.524;12.404;2023-12-20T00:18:51;-2.20;99.90
41882;DHT22;27562;47.524;12.404;2023-12-20T00:21:17;-2.20;99.90
41882;DHT22;27562;47.524;12.404;2023-12-20T00:23:43;-2.30;99.90
41882;DHT22;27562;47.524;12.404;2023-12-20T00:26:11;-2.30;99.90
41882;DHT22;27562;47.524;12.404;2023-12-20T00:28:37;-2.40;99.90
41882;DHT22;27562;47.524;12.404;2023-12-20T00:31:03;-2.40;99.90
41882;DHT22;27562;47.524;12.404;2023-12-20T00:33:29;-2.50;99.90
41882;DHT22;27562;47.524;12.404;2023-12-20T00:35:55;-2.50;99.90
41882;DHT22;27562;47.524;12.404;2023-12-20T00:38:21;-2.40;99.90
41882;DHT22;27562;47.524;12.404;2023-12-20T00:40:46;-2.40;99.90
41882;DHT22;27562;47.524;12.404;2023-12-20T00:43:12;-2.40;99.90
41882;DHT22;27562;47.524;12.404;2023-12-20T00:45:38;-2.40;99.90
41882;DHT22;27562;47.524;12.404;2023-12-20T00:48:04;-2.30;99.90
41882;DHT22;27562;47.524;12.404;2023-12-20T00:50:30;-2.30;99.90
41882;DHT22;27562;47.524;12.404;2023-12-20T00:52:55;-2.30;99.90
41882;DHT22;27562;47.524;12.404;2023-12-20T00:55:21;-2.30;99.90
41882;DHT22;27562;47.524;12.404;2023-12-20T00:57:47;-2.40;99.90
41882;DHT22;27562;47.524;12.404;2023-12-20T01:00:13;-2.50;99.90
41882;DHT22;27562;47.524;12.404;2023-12-20T01:02:39;-2.60;99.90
41882;DHT22;27562;47.524;12.404;2023-12-20T01:05:06;-2.70;99.90
41882;DHT22;27562;47.524;12.404;2023-12-20T01:07:32;-2.80;99.90
41882;DHT22;27562;47.524;12.404;2023-12-20T01:09:58;-2.90;99.90
41882;DHT22;27562;47.524;12.404;2023-12-20T01:12:24;-2.90;99.90
41882;DHT22;27562;47.524;12.404;2023-12-20T01:14:49;-3.00;99.90
41882;DHT22;27562;47.524;12.404;2023-12-20T01:17:15;-3.00;99.90
41882;DHT22;27562;47.524;12.404;2023-12-20T01:19:41;-3.00;99.90
41882;DHT22;27562;47.524;12.404;2023-12-20T01:22:06;-3.00;99.90
41882;DHT22;27562;47.524;12.404;2023-12-20T01:24:32;-3.00;99.90
41882;DHT22;27562;47.524;12.404;2023-12-20T01:26:58;-3.00;99.90
41882;DHT22;27562;47.524;12.404;2023-12-20T01:29:23;-3.00;99.90
41882;DHT22;27562;47.524;12.404;2023-12-20T01:31:49;-3.00;99.90
41882;DHT22;27562;47.524;12.404;2023-12-20T01:34:15;-3.00;99.90
41882;DHT22;27562;47.524;12.404;2023-12-20T01:36:41;-2.90;99.90
41882;DHT22;27562;47.524;12.404;2023-12-20T01:39:06;-2.80;99.90
41882;DHT22;27562;47.524;12.404;2023-12-20T01:41:32;-2.70;99.90
41882;DHT22;27562;47.524;12.404;2023-12-20T01:43:58;-2.70;99.90
41882;DHT22;27562;47.524;12.404;2023-12-20T01:46:24;-2.60;99.90
41882;DHT22;27562;47.524;12.404;2023-12-20T01:48:51;-2.60;99.90
41882;DHT22;27562;47.524;12.404;2023-12-20T01:51:17;-2.60;99.90
41882;DHT22;27562;47.524;12.404;2023-12-20T01:53:43;-2.60;99.90
41882;DHT22;27562;47.524;12.404;2023-12-20T01:56:09;-2.60;99.90
41882;DHT22;27562;47.524;12.404;2023-12-20T01:58:40;-2.50;99.90
41882;DHT22;27562;47.524;12.404;2023-12-20T02:01:09;-2.50;99.90
41882;DHT22;27562;47.524;12.404;2023-12-20T02:03:35;-2.50;99.90
41882;DHT22;27562;47.524;12.404;2023-12-20T02:06:04;-2.40;99.90
41882;DHT22;27562;47.524;12.404;2023-12-20T02:08:30;-2.50;99.90
41882;DHT22;27562;47.524;12.404;2023-12-20T02:10:56;-2.50;99.90
41882;DHT22;27562;47.524;12.404;2023-12-20T02:13:22;-2.50;99.90
41882;DHT22;27562;47.524;12.404;2023-12-20T02:15:47;-2.50;99.90
41882;DHT22;27562;47.524;12.404;2023-12-20T02:18:13;-2.60;99.90
41882;DHT22;27562;47.524;12.404;2023-12-20T02:20:42;-2.50;99.90
41882;DHT22;27562;47.524;12.404;2023-12-20T02:23:07;-2.60;99.90
41882;DHT22;27562;47.524;12.404;2023-12-20T02:25:33;-2.60;99.90
41882;DHT22;27562;47.524;12.404;2023-12-20T02:27:59;-2.60;99.90
41882;DHT22;27562;47.524;12.404;2023-12-20T02:30:24;-2.60;99.90
41882;DHT22;27562;47.524;12.404;2023-12-20T02:32:50;-2.70;99.90
41882;DHT22;27562;47.524;12.404;2023-12-20T02:35:16;-2.60;99.90
41882;DHT22;27562;47.524;12.404;2023-12-20T02:37:42;-2.60;99.90
41882;DHT22;27562;47.524;12.404;2023-12-20T02:40:08;-2.60;99.90
41882;DHT22;27562;47.524;12.404;2023-12-20T02:42:33;-2.60;99.90
41882;DHT22;27562;47.524;12.404;2023-12-20T02:44:59;-2.50;99.90
41882;DHT22;27562;47.524;12.404;2023-12-20T02:47:25;-2.50;99.90
41882;DHT22;27562;47.524;12.404;2023-12-20T02:49:50;-2.50;99.90
41882;DHT22;27562;47.524;12.404;2023-12-20T02:52:18;-2.50;99.90
41882;DHT22;27562;47.524;12.404;2023-12-20T02:54:43;-2.50;99.90
41882;DHT22;27562;47.524;12.404;2023-12-20T02:57:09;-2.50;99.90
41882;DHT22;27562;47.524;12.404;2023-12-20T02:59:35;-2.50;99.90
41882;DHT22;27562;47.524;12.404;2023-12-20T03:02:00;-2.50;99.90
41882;DHT22;27562;47.524;12.404;2023-12-20T03:04:26;-2.50;99.90
41882;DHT22;27562;47.524;12.404;2023-12-20T03:06:52;-2.50;99.90
41882;DHT22;27562;47.524;12.404;2023-12-20T03:09:17;-2.50;99.90
41882;DHT22;27562;47.524;12.404;2023-12-20T03:11:43;-2.40;99.90
41882;DHT22;27562;47.524;12.404;2023-12-20T03:14:10;-2.40;99.90
41882;DHT22;27562;47.524;12.404;2023-12-20T03:16:35;-2.40;99.90
41882;DHT22;27562;47.524;12.404;2023-12-20T03:19:01;-2.40;99.90
41882;DHT22;27562;47.524;12.404;2023-12-20T03:21:27;-2.40;99.90
41882;DHT22;27562;47.524;12.404;2023-12-20T03:23:52;-2.50;99.90
41882;DHT22;27562;47.524;12.404;2023-12-20T03:26:18;-2.50;99.90
41882;DHT22;27562;47.524;12.404;2023-12-20T03:28:44;-2.50;99.90
41882;DHT22;27562;47.524;12.404;2023-12-20T03:31:10;-2.50;99.90
41882;DHT22;27562;47.524;12.404;2023-12-20T03:33:36;-2.40;99.90
41882;DHT22;27562;47.524;12.404;2023-12-20T03:36:02;-2.40;99.90
41882;DHT22;27562;47.524;12.404;2023-12-20T03:38:27;-2.40;99.90
41882;DHT22;27562;47.524;12.404;2023-12-20T03:40:53;-2.40;99.90
41882;DHT22;27562;47.524;12.404;2023-12-20T03:43:19;-2.50;99.90
41882;DHT22;27562;47.524;12.404;2023-12-20T03:45:45;-2.40;99.90
41882;DHT22;27562;47.524;12.404;2023-12-20T03:48:11;-2.40;99.90
41882;DHT22;27562;47.524;12.404;2023-12-20T03:50:36;-2.40;99.90
41882;DHT22;27562;47.524;12.404;2023-12-20T03:53:02;-2.40;99.90
41882;DHT22;27562;47.524;12.404;2023-12-20T03:55:29;-2.40;99.90
41882;DHT22;27562;47.524;12.404;2023-12-20T03:57:54;-2.40;99.90
41882;DHT22;27562;47.524;12.404;2023-12-20T04:00:20;-2.40;99.90
41882;DHT22;27562;47.524;12.404;2023-12-20T04:02:46;-2.40;99.90
41882;DHT22;27562;47.524;12.404;2023-12-20T04:05:11;-2.30;99.90
41882;DHT22;27562;47.524;12.404;2023-12-20T04:07:37;-2.30;99.90
41882;DHT22;27562;47.524;12.404;2023-12-20T04:10:04;-2.30;99.90
41882;DHT22;27562;47.524;12.404;2023-12-20T04:12:30;-2.40;99.90
41882;DHT22;27562;47.524;12.404;2023-12-20T04:14:56;-2.40;99.90
41882;DHT22;27562;47.524;12.404;2023-12-20T04:17:22;-2.40;99.90
41882;DHT22;27562;47.524;12.404;2023-12-20T04:19:51;-2.40;99.90
41882;DHT22;27562;47.524;12.404;2023-12-20T04:22:18;-2.50;99.90
41882;DHT22;27562;47.524;12.404;2023-12-20T04:24:44;-2.40;99.90
41882;DHT22;27562;47.524;12.404;2023-12-20T04:27:10;-2.40;99.90
41882;DHT22;27562;47.524;12.404;2023-12-20T04:29:35;-2.40;99.90
41882;DHT22;27562;47.524;12.404;2023-12-20T04:32:01;-2.40;99.90
41882;DHT22;27562;47.524;12.404;2023-12-20T04:34:27;-2.30;99.90
41882;DHT22;27562;47.524;12.404;2023-12-20T04:36:53;-2.30;99.90
41882;DHT22;27562;47.524;12.404;2023-12-20T04:39:18;-2.30;99.90
41882;DHT22;27562;47.524;12.404;2023-12-20T04:41:47;-2.20;99.90
41882;DHT22;27562;47.524;12.404;2023-12-20T04:44:15;-2.10;99.90
41882;DHT22;27562;47.524;12.404;2023-12-20T04:46:44;-2.10;99.90
41882;DHT22;27562;47.524;12.404;2023-12-20T04:49:10;-2.00;99.90
41882;DHT22;27562;47.524;12.404;2023-12-20T04:51:41;-2.00;99.90
41882;DHT22;27562;47.524;12.404;2023-12-20T04:54:06;-2.00;99.90
41882;DHT22;27562;47.524;12.404;2023-12-20T04:56:32;-2.00;99.90
41882;DHT22;27562;47.524;12.404;2023-12-20T04:59:01;-1.90;99.90
41882;DHT22;27562;47.524;12.404;2023-12-20T05:01:27;-1.90;99.90
41882;DHT22;27562;47.524;12.404;2023-12-20T05:03:53;-1.90;99.90
41882;DHT22;27562;47.524;12.404;2023-12-20T05:06:18;-1.90;99.90
41882;DHT22;27562;47.524;12.404;2023-12-20T05:08:44;-1.90;99.90
41882;DHT22;27562;47.524;12.404;2023-12-20T05:11:10;-1.90;99.90
41882;DHT22;27562;47.524;12.404;2023-12-20T05:13:35;-1.90;99.90
41882;DHT22;27562;47.524;12.404;2023-12-20T05:16:01;-1.90;99.90
41882;DHT22;27562;47.524;12.404;2023-12-20T05:18:27;-1.90;99.90
41882;DHT22;27562;47.524;12.404;2023-12-20T05:20:52;-1.90;99.90
41882;DHT22;27562;47.524;12.404;2023-12-20T05:23:18;-1.90;99.90
41882;DHT22;27562;47.524;12.404;2023-12-20T05:25:45;-1.90;99.90
41882;DHT22;27562;47.524;12.404;2023-12-20T05:28:11;-1.80;99.90
41882;DHT22;27562;47.524;12.404;2023-12-20T05:30:37;-1.80;99.90
41882;DHT22;27562;47.524;12.404;2023-12-20T05:33:02;-1.80;99.90
41882;DHT22;27562;47.524;12.404;2023-12-20T05:35:31;-1.80;99.90
41882;DHT22;27562;47.524;12.404;2023-12-20T05:37:58;-1.80;99.90
41882;DHT22;27562;47.524;12.404;2023-12-20T05:40:24;-1.80;99.90
41882;DHT22;27562;47.524;12.404;2023-12-20T05:42:49;-1.70;99.90
41882;DHT22;27562;47.524;12.404;2023-12-20T05:45:15;-1.70;99.90
41882;DHT22;27562;47.524;12.404;2023-12-20T05:47:41;-1.70;99.90
41882;DHT22;27562;47.524;12.404;2023-12-20T05:50:06;-1.70;99.90
41882;DHT22;27562;47.524;12.404;2023-12-20T05:52:32;-1.70;99.90
41882;DHT22;27562;47.524;12.404;2023-12-20T05:54:58;-1.60;99.90
41882;DHT22;27562;47.524;12.404;2023-12-20T05:57:26;-1.60;99.90
41882;DHT22;27562;47.524;12.404;2023-12-20T05:59:52;-1.60;99.90
41882;DHT22;27562;47.524;12.404;2023-12-20T06:02:18;-1.60;99.90
41882;DHT22;27562;47.524;12.404;2023-12-20T06:04:43;-1.60;99.90
41882;DHT22;27562;47.524;12.404;2023-12-20T06:07:12;-1.50;99.90
41882;DHT22;27562;47.524;12.404;2023-12-20T06:09:38;-1.50;99.90
41882;DHT22;27562;47.524;12.404;2023-12-20T06:12:04;-1.50;99.90
41882;DHT22;27562;47.524;12.404;2023-12-20T06:14:29;-1.50;99.90
41882;DHT22;27562;47.524;12.404;2023-12-20T06:16:57;-1.50;99.90
41882;DHT22;27562;47.524;12.404;2023-12-20T06:19:22;-1.60;99.90
41882;DHT22;27562;47.524;12.404;2023-12-20T06:21:48;-1.60;99.90
41882;DHT22;27562;47.524;12.404;2023-12-20T06:24:14;-1.60;99.90
41882;DHT22;27562;47.524;12.404;2023-12-20T06:26:40;-1.60;99.90
41882;DHT22;27562;47.524;12.404;2023-12-20T06:29:05;-1.60;99.90
41882;DHT22;27562;47.524;12.404;2023-12-20T06:31:31;-1.50;99.90
41882;DHT22;27562;47.524;12.404;2023-12-20T06:33:58;-1.50;99.90
41882;DHT22;27562;47.524;12.404;2023-12-20T06:36:28;-1.50;99.90
41882;DHT22;27562;47.524;12.404;2023-12-20T06:38:54;-1.50;99.90
41882;DHT22;27562;47.524;12.404;2023-12-20T06:41:19;-1.50;99.90
41882;DHT22;27562;47.524;12.404;2023-12-20T06:43:45;-1.40;99.90
41882;DHT22;27562;47.524;12.404;2023-12-20T06:46:11;-1.40;99.90
41882;DHT22;27562;47.524;12.404;2023-12-20T06:48:38;-1.40;99.90
41882;DHT22;27562;47.524;12.404;2023-12-20T06:51:05;-1.40;99.90
41882;DHT22;27562;47.524;12.404;2023-12-20T06:53:31;-1.40;99.90
41882;DHT22;27562;47.524;12.404;2023-12-20T06:55:56;-1.40;99.90
41882;DHT22;27562;47.524;12.404;2023-12-20T06:58:23;-1.30;99.90
41882;DHT22;27562;47.524;12.404;2023-12-20T07:00:48;-1.30;99.90
41882;DHT22;27562;47.524;12.404;2023-12-20T07:03:14;-1.30;99.90
41882;DHT22;27562;47.524;12.404;2023-12-20T07:05:40;-1.30;99.90
41882;DHT22;27562;47.524;12.404;2023-12-20T07:08:06;-1.30;99.90
41882;DHT22;27562;47.524;12.404;2023-12-20T07:10:32;-1.20;99.90
41882;DHT22;27562;47.524;12.404;2023-12-20T07:12:58;-1.20;99.90
41882;DHT22;27562;47.524;12.404;2023-12-20T07:15:24;-1.20;99.90
41882;DHT22;27562;47.524;12.404;2023-12-20T07:17:49;-1.20;99.90
41882;DHT22;27562;47.524;12.404;2023-12-20T07:20:15;-1.20;99.90
41882;DHT22;27562;47.524;12.404;2023-12-20T07:22:41;-1.20;99.90
41882;DHT22;27562;47.524;12.404;2023-12-20T07:25:07;-1.20;99.90
41882;DHT22;27562;47.524;12.404;2023-12-20T07:27:33;-1.20;99.90
41882;DHT22;27562;47.524;12.404;2023-12-20T07:29:59;-1.20;99.90
41882;DHT22;27562;47.524;12.404;2023-12-20T07:32:24;-1.10;99.90
41882;DHT22;27562;47.524;12.404;2023-12-20T07:34:50;-1.10;99.90
41882;DHT22;27562;47.524;12.404;2023-12-20T07:37:16;-1.10;99.90
41882;DHT22;27562;47.524;12.404;2023-12-20T07:39:42;-1.10;99.90
41882;DHT22;27562;47.524;12.404;2023-12-20T07:42:08;-1.10;99.90
41882;DHT22;27562;47.524;12.404;2023-12-20T07:44:34;-1.00;99.90
41882;DHT22;27562;47.524;12.404;2023-12-20T07:47:03;-1.00;99.90
41882;DHT22;27562;47.524;12.404;2023-12-20T07:49:30;-1.00;99.90
41882;DHT22;27562;47.524;12.404;2023-12-20T07:51:57;-1.00;99.90
41882;DHT22;27562;47.524;12.404;2023-12-20T07:54:23;-1.00;99.90
41882;DHT22;27562;47.524;12.404;2023-12-20T07:56:49;-1.00;99.90
41882;DHT22;27562;47.524;12.404;2023-12-20T07:59:14;-1.00;99.90
41882;DHT22;27562;47.524;12.404;2023-12-20T08:01:40;-1.00;99.90
41882;DHT22;27562;47.524;12.404;2023-12-20T08:04:06;-0.90;99.90
41882;DHT22;27562;47.524;12.404;2023-12-20T08:06:31;-1.00;99.90
41882;DHT22;27562;47.524;12.404;2023-12-20T08:08:57;-1.00;99.90
41882;DHT22;27562;47.524;12.404;2023-12-20T08:11:23;-0.90;99.90
41882;DHT22;27562;47.524;12.404;2023-12-20T08:13:48;-0.90;99.90
41882;DHT22;27562;47.524;12.404;2023-12-20T08:16:14;-0.90;99.90
41882;DHT22;27562;47.524;12.404;2023-12-20T08:18:41;-0.90;99.90
41882;DHT22;27562;47.524;12.404;2023-12-20T08:21:07;-0.90;99.90
41882;DHT22;27562;47.524;12.404;2023-12-20T08:23:35;-0.80;99.90
41882;DHT22;27562;47.524;12.404;2023-12-20T08:26:08;-0.80;99.90
41882;DHT22;27562;47.524;12.404;2023-12-20T08:28:34;-0.80;99.90
41882;DHT22;27562;47.524;12.404;2023-12-20T08:31:00;-0.70;99.90
41882;DHT22;27562;47.524;12.404;2023-12-20T08:33:25;-0.70;99.90
41882;DHT22;27562;47.524;12.404;2023-12-20T08:35:51;-0.70;99.90
41882;DHT22;27562;47.524;12.404;2023-12-20T08:38:17;-0.70;99.90
41882;DHT22;27562;47.524;12.404;2023-12-20T08:40:43;-0.70;99.90
41882;DHT22;27562;47.524;12.404;2023-12-20T08:43:09;-0.70;99.90
41882;DHT22;27562;47.524;12.404;2023-12-20T08:45:35;-0.70;99.90
41882;DHT22;27562;47.524;12.404;2023-12-20T08:48:01;-0.70;99.90
41882;DHT22;27562;47.524;12.404;2023-12-20T08:50:26;-0.60;99.90
41882;DHT22;27562;47.524;12.404;2023-12-20T08:52:52;-0.60;99.90
41882;DHT22;27562;47.524;12.404;2023-12-20T08:55:19;-0.60;99.90
41882;DHT22;27562;47.524;12.404;2023-12-20T08:57:45;-0.60;99.90
41882;DHT22;27562;47.524;12.404;2023-12-20T09:00:11;-0.60;99.90
41882;DHT22;27562;47.524;12.404;2023-12-20T09:02:37;-0.60;99.90
41882;DHT22;27562;47.524;12.404;2023-12-20T09:05:03;-0.60;99.90
41882;DHT22;27562;47.524;12.404;2023-12-20T09:07:29;-0.50;99.90
41882;DHT22;27562;47.524;12.404;2023-12-20T09:09:58;-0.50;99.90
41882;DHT22;27562;47.524;12.404;2023-12-20T09:12:24;-0.40;99.90
41882;DHT22;27562;47.524;12.404;2023-12-20T09:14:51;-0.40;99.90
41882;DHT22;27562;47.524;12.404;2023-12-20T09:17:17;-0.40;99.90
41882;DHT22;27562;47.524;12.404;2023-12-20T09:19:43;-0.30;99.90
41882;DHT22;27562;47.524;12.404;2023-12-20T09:22:10;-0.30;99.90
41882;DHT22;27562;47.524;12.404;2023-12-20T09:24:36;-0.30;99.90
41882;DHT22;27562;47.524;12.404;2023-12-20T09:27:02;-0.30;99.90
41882;DHT22;27562;47.524;12.404;2023-12-20T09:29:28;-0.30;99.90
41882;DHT22;27562;47.524;12.404;2023-12-20T09:31:54;-0.20;99.90
41882;DHT22;27562;47.524;12.404;2023-12-20T09:34:20;-0.20;99.90
41882;DHT22;27562;47.524;12.404;2023-12-20T09:36:46;-0.20;99.90
41882;DHT22;27562;47.524;12.404;2023-12-20T09:39:19;-0.20;99.90
41882;DHT22;27562;47.524;12.404;2023-12-20T09:42:11;-0.10;99.90
41882;DHT22;27562;47.524;12.404;2023-12-20T09:44:35;-0.10;99.90
41882;DHT22;27562;47.524;12.404;2023-12-20T09:47:05;-0.10;99.90
41882;DHT22;27562;47.524;12.404;2023-12-20T09:49:33;-0.10;99.90
41882;DHT22;27562;47.524;12.404;2023-12-20T09:52:00;-0.10;99.90
41882;DHT22;27562;47.524;12.404;2023-12-20T09:54:27;-0.10;99.90
41882;DHT22;27562;47.524;12.404;2023-12-20T09:56:53;-0.10;99.90
41882;DHT22;27562;47.524;12.404;2023-12-20T09:59:19;0.00;99.90
41882;DHT22;27562;47.524;12.404;2023-12-20T10:01:45;0.00;99.90
41882;DHT22;27562;47.524;12.404;2023-12-20T10:04:12;0.00;99.90
41882;DHT22;27562;47.524;12.404;2023-12-20T10:06:42;0.00;99.90
41882;DHT22;27562;47.524;12.404;2023-12-20T10:09:09;0.00;99.90
41882;DHT22;27562;47.524;12.404;2023-12-20T10:11:37;0.10;99.90
41882;DHT22;27562;47.524;12.404;2023-12-20T10:14:03;0.10;99.90
41882;DHT22;27562;47.524;12.404;2023-12-20T10:16:29;0.20;99.90
41882;DHT22;27562;47.524;12.404;2023-12-20T10:18:56;0.20;99.90
41882;DHT22;27562;47.524;12.404;2023-12-20T10:21:25;0.20;99.90
41882;DHT22;27562;47.524;12.404;2023-12-20T10:23:55;0.20;99.90
41882;DHT22;27562;47.524;12.404;2023-12-20T10:26:22;0.20;99.90
41882;DHT22;27562;47.524;12.404;2023-12-20T10:28:55;0.20;99.90
41882;DHT22;27562;47.524;12.404;2023-12-20T10:31:31;0.30;99.90
41882;DHT22;27562;47.524;12.404;2023-12-20T10:33:58;0.30;99.90
41882;DHT22;27562;47.524;12.404;2023-12-20T10:36:25;0.30;99.90
41882;DHT22;27562;47.524;12.404;2023-12-20T10:38:53;0.30;99.90
41882;DHT22;27562;47.524;12.404;2023-12-20T10:41:39;0.30;99.90
41882;DHT22;27562;47.524;12.404;2023-12-20T10:44:07;0.30;99.90
41882;DHT22;27562;47.524;12.404;2023-12-20T10:46:34;0.30;99.90
41882;DHT22;27562;47.524;12.404;2023-12-20T10:49:02;0.40;99.90
41882;DHT22;27562;47.524;12.404;2023-12-20T10:51:31;0.30;99.90
41882;DHT22;27562;47.524;12.404;2023-12-20T10:53:57;0.40;99.90
41882;DHT22;27562;47.524;12.404;2023-12-20T10:56:22;0.40;99.90
41882;DHT22;27562;47.524;12.404;2023-12-20T10:58:52;0.40;99.90
41882;DHT22;27562;47.524;12.404;2023-12-20T11:01:19;0.40;99.90
41882;DHT22;27562;47.524;12.404;2023-12-20T11:03:50;0.40;99.90
41882;DHT22;27562;47.524;12.404;2023-12-20T11:06:43;0.50;99.90
41882;DHT22;27562;47.524;12.404;2023-12-20T11:09:33;0.50;99.90
41882;DHT22;27562;47.524;12.404;2023-12-20T11:12:15;0.50;99.90
41882;DHT22;27562;47.524;12.404;2023-12-20T11:14:51;0.60;99.90
41882;DHT22;27562;47.524;12.404;2023-12-20T11:17:17;0.60;99.90
41882;DHT22;27562;47.524;12.404;2023-12-20T11:22:22;0.60;99.90
41882;DHT22;27562;47.524;12.404;2023-12-20T11:24:49;0.70;99.90
41882;DHT22;27562;47.524;12.404;2023-12-20T11:27:15;0.70;99.90
41882;DHT22;27562;47.524;12.404;2023-12-20T11:29:41;0.70;99.90
41882;DHT22;27562;47.524;12.404;2023-12-20T11:34:51;0.70;99.90
41882;DHT22;27562;47.524;12.404;2023-12-20T11:37:19;0.70;99.90
41882;DHT22;27562;47.524;12.404;2023-12-20T11:39:45;0.80;99.90
41882;DHT22;27562;47.524;12.404;2023-12-20T11:42:19;0.80;99.90
41882;DHT22;27562;47.524;12.404;2023-12-20T11:44:46;0.90;99.90
41882;DHT22;27562;47.524;12.404;2023-12-20T11:47:13;0.90;99.90
41882;DHT22;27562;47.524;12.404;2023-12-20T11:49:39;0.90;99.90
41882;DHT22;27562;47.524;12.404;2023-12-20T11:52:05;1.00;99.90
41882;DHT22;27562;47.524;12.404;2023-12-20T11:54:31;1.10;99.90
41882;DHT22;27562;47.524;12.404;2023-12-20T11:56:57;1.10;99.90
41882;DHT22;27562;47.524;12.404;2023-12-20T11:59:23;1.20;99.90
41882;DHT22;27562;47.524;12.404;2023-12-20T12:01:50;1.20;99.90
41882;DHT22;27562;47.524;12.404;2023-12-20T12:04:16;1.30;99.90
41882;DHT22;27562;47.524;12.404;2023-12-20T12:06:43;1.30;99.90
41882;DHT22;27562;47.524;12.404;2023-12-20T12:09:10;1.30;99.90
41882;DHT22;27562;47.524;12.404;2023-12-20T12:11:38;1.30;99.90
41882;DHT22;27562;47.524;12.404;2023-12-20T12:14:04;1.30;99.90
41882;DHT22;27562;47.524;12.404;2023-12-20T12:16:30;1.30;99.90
41882;DHT22;27562;47.524;12.404;2023-12-20T12:18:59;1.30;99.90
41882;DHT22;27562;47.524;12.404;2023-12-20T12:21:25;1.30;99.90
41882;DHT22;27562;47.524;12.404;2023-12-20T12:23:50;1.40;99.90
41882;DHT22;27562;47.524;12.404;2023-12-20T12:26:16;1.40;99.90
41882;DHT22;27562;47.524;12.404;2023-12-20T12:28:42;1.40;99.90
41882;DHT22;27562;47.524;12.404;2023-12-20T12:31:13;1.40;99.90
41882;DHT22;27562;47.524;12.404;2023-12-20T12:33:40;1.40;99.90
41882;DHT22;27562;47.524;12.404;2023-12-20T12:36:07;1.40;99.90
41882;DHT22;27562;47.524;12.404;2023-12-20T12:38:33;1.40;99.90
41882;DHT22;27562;47.524;12.404;2023-12-20T12:41:00;1.40;99.90
41882;DHT22;27562;47.524;12.404;2023-12-20T12:43:26;1.40;99.90
41882;DHT22;27562;47.524;12.404;2023-12-20T12:45:52;1.40;99.90
41882;DHT22;27562;47.524;12.404;2023-12-20T12:48:18;1.40;99.90
41882;DHT22;27562;47.524;12.404;2023-12-20T12:50:45;1.40;99.90
41882;DHT22;27562;47.524;12.404;2023-12-20T12:53:10;1.40;99.90
41882;DHT22;27562;47.524;12.404;2023-12-20T12:55:36;1.40;99.90
41882;DHT22;27562;47.524;12.404;2023-12-20T12:58:02;1.40;99.90
41882;DHT22;27562;47.524;12.404;2023-12-20T13:00:28;1.50;99.90
41882;DHT22;27562;47.524;12.404;2023-12-20T13:02:54;1.50;99.90
41882;DHT22;27562;47.524;12.404;2023-12-20T13:05:19;1.40;99.90
41882;DHT22;27562;47.524;12.404;2023-12-20T13:07:45;1.40;99.90
41882;DHT22;27562;47.524;12.404;2023-12-20T13:10:11;1.50;99.90
41882;DHT22;27562;47.524;12.404;2023-12-20T13:12:37;1.50;99.90
41882;DHT22;27562;47.524;12.404;2023-12-20T13:15:03;1.40;99.90
41882;DHT22;27562;47.524;12.404;2023-12-20T13:17:31;1.40;99.90
41882;DHT22;27562;47.524;12.404;2023-12-20T13:19:57;1.40;99.90
41882;DHT22;27562;47.524;12.404;2023-12-20T13:22:23;1.40;99.90
41882;DHT22;27562;47.524;12.404;2023-12-20T13:24:49;1.40;99.90
41882;DHT22;27562;47.524;12.404;2023-12-20T13:27:14;1.40;99.90
41882;DHT22;27562;47.524;12.404;2023-12-20T13:29:40;1.40;99.90
41882;DHT22;27562;47.524;12.404;2023-12-20T13:32:06;1.50;99.90
41882;DHT22;27562;47.524;12.404;2023-12-20T13:34:32;1.50;99.90
41882;DHT22;27562;47.524;12.404;2023-12-20T13:36:58;1.50;99.90
41882;DHT22;27562;47.524;12.404;2023-12-20T13:39:23;1.50;99.90
41882;DHT22;27562;47.524;12.404;2023-12-20T13:41:49;1.60;99.90
41882;DHT22;27562;47.524;12.404;2023-12-20T13:44:15;1.70;99.90
41882;DHT22;27562;47.524;12.404;2023-12-20T13:46:41;1.70;99.90
41882;DHT22;27562;47.524;12.404;2023-12-20T13:49:07;1.70;99.90
41882;DHT22;27562;47.524;12.404;2023-12-20T13:51:32;1.80;99.90
41882;DHT22;27562;47.524;12.404;2023-12-20T13:53:58;1.80;99.90
41882;DHT22;27562;47.524;12.404;2023-12-20T13:56:25;1.80;99.90
41882;DHT22;27562;47.524;12.404;2023-12-20T13:58:50;1.80;99.90
41882;DHT22;27562;47.524;12.404;2023-12-20T14:01:16;1.80;99.90
41882;DHT22;27562;47.524;12.404;2023-12-20T14:03:42;1.90;99.90
41882;DHT22;27562;47.524;12.404;2023-12-20T14:06:08;1.90;99.90
41882;DHT22;27562;47.524;12.404;2023-12-20T14:08:33;1.90;99.90
41882;DHT22;27562;47.524;12.404;2023-12-20T14:10:59;1.90;99.90
41882;DHT22;27562;47.524;12.404;2023-12-20T14:13:26;1.80;99.90
41882;DHT22;27562;47.524;12.404;2023-12-20T14:15:52;1.80;99.90
41882;DHT22;27562;47.524;12.404;2023-12-20T14:18:19;1.80;99.90
41882;DHT22;27562;47.524;12.404;2023-12-20T14:20:45;1.70;99.90
41882;DHT22;27562;47.524;12.404;2023-12-20T14:23:12;1.70;99.90
41882;DHT22;27562;47.524;12.404;2023-12-20T14:25:41;1.70;99.90
41882;DHT22;27562;47.524;12.404;2023-12-20T14:28:07;1.70;99.90
41882;DHT22;27562;47.524;12.404;2023-12-20T14:30:33;1.70;99.90
41882;DHT22;27562;47.524;12.404;2023-12-20T14:33:00;1.70;99.90
41882;DHT22;27562;47.524;12.404;2023-12-20T14:35:26;1.60;99.90
41882;DHT22;27562;47.524;12.404;2023-12-20T14:37:51;1.60;99.90
41882;DHT22;27562;47.524;12.404;2023-12-20T14:40:17;1.60;99.90
41882;DHT22;27562;47.524;12.404;2023-12-20T14:42:44;1.60;99.90
41882;DHT22;27562;47.524;12.404;2023-12-20T14:45:10;1.60;99.90
41882;DHT22;27562;47.524;12.404;2023-12-20T14:47:35;1.50;99.90
41882;DHT22;27562;47.524;12.404;2023-12-20T14:50:05;1.50;99.90
41882;DHT22;27562;47.524;12.404;2023-12-20T14:52:34;1.50;99.90
41882;DHT22;27562;47.524;12.404;2023-12-20T14:55:01;1.50;99.90
41882;DHT22;27562;47.524;12.404;2023-12-20T14:57:28;1.40;99.90
41882;DHT22;27562;47.524;12.404;2023-12-20T14:59:55;1.40;99.90
41882;DHT22;27562;47.524;12.404;2023-12-20T15:02:20;1.40;99.90
41882;DHT22;27562;47.524;12.404;2023-12-20T15:04:46;1.40;99.90
41882;DHT22;27562;47.524;12.404;2023-12-20T15:07:12;1.50;99.90
41882;DHT22;27562;47.524;12.404;2023-12-20T15:09:37;1.50;99.90
41882;DHT22;27562;47.524;12.404;2023-12-20T15:12:04;1.40;99.90
41882;DHT22;27562;47.524;12.404;2023-12-20T15:14:30;1.40;99.90
41882;DHT22;27562;47.524;12.404;2023-12-20T15:16:55;1.40;99.90
41882;DHT22;27562;47.524;12.404;2023-12-20T15:19:21;1.30;99.90
41882;DHT22;27562;47.524;12.404;2023-12-20T15:21:47;1.30;99.90